sensor_id;sensor_type;location;lat;lon;timestamp;temperature;humidity
2687;DHT22;1353;51.386;7.028;2022-08-25T00:00:24;21.70;84.20
2687;DHT22;1353;51.386;7.028;2022-08-25T00:02:53;21.60;84.60
2687;DHT22;1353;51.386;7.028;2022-08-25T00:05:20;21.70;82.00
2687;DHT22;1353;51.386;7.028;2022-08-25T00:07:47;21.40;83.80
2687;DHT22;1353;51.386;7.028;2022-08-25T00:10:13;21.10;86.00
2687;DHT22;1353;51.386;7.028;2022-08-25T00:12:42;20.90;88.70
2687;DHT22;1353;51.386;7.028;2022-08-25T00:15:09;20.70;92.90
2687;DHT22;1353;51.386;7.028;2022-08-25T00:17:36;20.60;94.40
2687;DHT22;1353;51.386;7.028;2022-08-25T00:20:03;20.50;92.30
2687;DHT22;1353;51.386;7.028;2022-08-25T00:22:30;20.60;97.10
2687;DHT22;1353;51.386;7.028;2022-08-25T00:24:57;21.30;83.90
2687;DHT22;1353;51.386;7.028;2022-08-25T00:27:24;21.20;85.40
2687;DHT22;1353;51.386;7.028;2022-08-25T00:29:52;21.30;87.70
2687;DHT22;1353;51.386;7.028;2022-08-25T00:32:19;21.20;80.90
2687;DHT22;1353;51.386;7.028;2022-08-25T00:34:45;21.50;78.50
2687;DHT22;1353;51.386;7.028;2022-08-25T00:37:12;21.80;74.20
2687;DHT22;1353;51.386;7.028;2022-08-25T00:39:40;22.10;69.10
2687;DHT22;1353;51.386;7.028;2022-08-25T00:42:08;21.90;70.70
2687;DHT22;1353;51.386;7.028;2022-08-25T00:44:35;21.90;70.80
2687;DHT22;1353;51.386;7.028;2022-08-25T00:47:04;21.70;73.10
2687;DHT22;1353;51.386;7.028;2022-08-25T00:49:36;21.70;73.90
2687;DHT22;1353;51.386;7.028;2022-08-25T00:52:06;22.20;68.80
2687;DHT22;1353;51.386;7.028;2022-08-25T00:54:37;21.40;72.50
2687;DHT22;1353;51.386;7.028;2022-08-25T00:57:06;21.40;73.20
2687;DHT22;1353;51.386;7.028;2022-08-25T00:59:34;21.20;75.20
2687;DHT22;1353;51.386;7.028;2022-08-25T01:02:05;21.10;75.10
2687;DHT22;1353;51.386;7.028;2022-08-25T01:04:32;20.60;84.30
2687;DHT22;1353;51.386;7.028;2022-08-25T01:06:59;20.70;82.90
2687;DHT22;1353;51.386;7.028;2022-08-25T01:09:27;20.60;83.80
2687;DHT22;1353;51.386;7.028;2022-08-25T01:11:55;20.50;86.30
2687;DHT22;1353;51.386;7.028;2022-08-25T01:14:24;20.50;88.20
2687;DHT22;1353;51.386;7.028;2022-08-25T01:16:51;20.60;89.80
2687;DHT22;1353;51.386;7.028;2022-08-25T01:19:20;20.50;90.20
2687;DHT22;1353;51.386;7.028;2022-08-25T01:21:50;20.30;90.40
2687;DHT22;1353;51.386;7.028;2022-08-25T01:24:23;20.20;91.80
2687;DHT22;1353;51.386;7.028;2022-08-25T01:26:51;20.20;92.20
2687;DHT22;1353;51.386;7.028;2022-08-25T01:29:18;20.10;92.30
2687;DHT22;1353;51.386;7.028;2022-08-25T01:31:52;20.30;91.90
2687;DHT22;1353;51.386;7.028;2022-08-25T01:34:23;20.60;90.60
2687;DHT22;1353;51.386;7.028;2022-08-25T01:36:52;20.50;91.20
2687;DHT22;1353;51.386;7.028;2022-08-25T01:39:19;20.70;88.20
2687;DHT22;1353;51.386;7.028;2022-08-25T01:41:58;20.70;86.30
2687;DHT22;1353;51.386;7.028;2022-08-25T01:44:29;20.60;88.50
2687;DHT22;1353;51.386;7.028;2022-08-25T01:46:56;20.50;88.90
2687;DHT22;1353;51.386;7.028;2022-08-25T01:49:22;20.30;90.10
2687;DHT22;1353;51.386;7.028;2022-08-25T01:51:55;20.20;91.10
2687;DHT22;1353;51.386;7.028;2022-08-25T01:54:22;20.20;91.30
2687;DHT22;1353;51.386;7.028;2022-08-25T01:56:49;20.40;89.70
2687;DHT22;1353;51.386;7.028;2022-08-25T01:59:16;20.50;87.60
2687;DHT22;1353;51.386;7.028;2022-08-25T02:01:43;20.50;86.70
2687;DHT22;1353;51.386;7.028;2022-08-25T02:04:10;20.30;88.50
2687;DHT22;1353;51.386;7.028;2022-08-25T02:06:37;20.50;87.00
2687;DHT22;1353;51.386;7.028;2022-08-25T02:09:10;20.50;86.30
2687;DHT22;1353;51.386;7.028;2022-08-25T02:11:40;20.20;92.20
2687;DHT22;1353;51.386;7.028;2022-08-25T02:14:08;19.90;92.60
2687;DHT22;1353;51.386;7.028;2022-08-25T02:16:38;19.80;93.30
2687;DHT22;1353;51.386;7.028;2022-08-25T02:19:07;19.80;93.10
2687;DHT22;1353;51.386;7.028;2022-08-25T02:21:34;20.00;92.20
2687;DHT22;1353;51.386;7.028;2022-08-25T02:24:02;19.80;93.80
2687;DHT22;1353;51.386;7.028;2022-08-25T02:26:30;19.90;92.70
2687;DHT22;1353;51.386;7.028;2022-08-25T02:28:57;19.80;93.50
2687;DHT22;1353;51.386;7.028;2022-08-25T02:31:24;20.00;93.00
2687;DHT22;1353;51.386;7.028;2022-08-25T02:33:52;20.00;91.50
2687;DHT22;1353;51.386;7.028;2022-08-25T02:36:20;20.00;95.50
2687;DHT22;1353;51.386;7.028;2022-08-25T02:38:47;19.70;99.40
2687;DHT22;1353;51.386;7.028;2022-08-25T02:41:17;19.50;99.90
2687;DHT22;1353;51.386;7.028;2022-08-25T02:43:47;19.50;99.90
2687;DHT22;1353;51.386;7.028;2022-08-25T02:46:15;20.00;98.20
2687;DHT22;1353;51.386;7.028;2022-08-25T02:48:42;19.50;99.90
2687;DHT22;1353;51.386;7.028;2022-08-25T02:51:10;19.60;99.90
2687;DHT22;1353;51.386;7.028;2022-08-25T02:53:39;19.40;99.90
2687;DHT22;1353;51.386;7.028;2022-08-25T02:56:09;19.20;99.90
2687;DHT22;1353;51.386;7.028;2022-08-25T02:58:37;19.50;99.90
2687;DHT22;1353;51.386;7.028;2022-08-25T03:01:06;19.00;99.90
2687;DHT22;1353;51.386;7.028;2022-08-25T03:03:35;19.10;99.90
2687;DHT22;1353;51.386;7.028;2022-08-25T03:06:02;19.10;99.90
2687;DHT22;1353;51.386;7.028;2022-08-25T03:08:29;19.50;99.90
2687;DHT22;1353;51.386;7.028;2022-08-25T03:10:56;19.30;99.90
2687;DHT22;1353;51.386;7.028;2022-08-25T03:13:23;19.30;99.90
2687;DHT22;1353;51.386;7.028;2022-08-25T03:15:50;19.00;99.90
2687;DHT22;1353;51.386;7.028;2022-08-25T03:18:18;19.00;99.90
2687;DHT22;1353;51.386;7.028;2022-08-25T03:20:44;18.80;99.90
2687;DHT22;1353;51.386;7.028;2022-08-25T03:23:11;18.90;99.90
2687;DHT22;1353;51.386;7.028;2022-08-25T03:25:38;18.90;99.90
2687;DHT22;1353;51.386;7.028;2022-08-25T03:28:22;18.70;99.90
2687;DHT22;1353;51.386;7.028;2022-08-25T03:30:49;18.60;99.90
2687;DHT22;1353;51.386;7.028;2022-08-25T03:33:17;18.40;99.90
2687;DHT22;1353;51.386;7.028;2022-08-25T03:35:44;18.60;99.90
2687;DHT22;1353;51.386;7.028;2022-08-25T03:38:11;18.80;99.90
2687;DHT22;1353;51.386;7.028;2022-08-25T03:40:38;19.20;99.90
2687;DHT22;1353;51.386;7.028;2022-08-25T03:43:04;19.00;99.90
2687;DHT22;1353;51.386;7.028;2022-08-25T03:45:31;18.80;99.90
2687;DHT22;1353;51.386;7.028;2022-08-25T03:47:58;18.90;99.90
2687;DHT22;1353;51.386;7.028;2022-08-25T03:50:26;19.10;99.90
2687;DHT22;1353;51.386;7.028;2022-08-25T03:52:55;18.90;99.90
2687;DHT22;1353;51.386;7.028;2022-08-25T03:55:24;18.90;99.90
2687;DHT22;1353;51.386;7.028;2022-08-25T03:57:52;18.70;99.90
2687;DHT22;1353;51.386;7.028;2022-08-25T04:00:20;18.60;99.90
2687;DHT22;1353;51.386;7.028;2022-08-25T04:02:47;18.30;99.90
2687;DHT22;1353;51.386;7.028;2022-08-25T04:05:14;18.60;99.90
2687;DHT22;1353;51.386;7.028;2022-08-25T04:07:43;18.50;99.90
2687;DHT22;1353;51.386;7.028;2022-08-25T04:10:10;18.40;99.90
2687;DHT22;1353;51.386;7.028;2022-08-25T04:12:37;18.40;99.90
2687;DHT22;1353;51.386;7.028;2022-08-25T04:15:05;18.50;99.90
2687;DHT22;1353;51.386;7.028;2022-08-25T04:17:32;18.20;99.90
2687;DHT22;1353;51.386;7.028;2022-08-25T04:20:00;18.10;99.90
2687;DHT22;1353;51.386;7.028;2022-08-25T04:22:27;18.10;99.90
2687;DHT22;1353;51.386;7.028;2022-08-25T04:24:57;18.20;99.90
2687;DHT22;1353;51.386;7.028;2022-08-25T04:27:24;17.90;99.90
2687;DHT22;1353;51.386;7.028;2022-08-25T04:29:51;17.90;99.90
2687;DHT22;1353;51.386;7.028;2022-08-25T04:32:17;18.50;99.90
2687;DHT22;1353;51.386;7.028;2022-08-25T04:34:45;20.20;99.90
2687;DHT22;1353;51.386;7.028;2022-08-25T04:37:12;21.00;99.90
2687;DHT22;1353;51.386;7.028;2022-08-25T04:39:39;21.70;99.90
2687;DHT22;1353;51.386;7.028;2022-08-25T04:42:07;20.30;99.90
2687;DHT22;1353;51.386;7.028;2022-08-25T04:44:34;20.60;99.90
2687;DHT22;1353;51.386;7.028;2022-08-25T04:47:01;19.50;99.90
2687;DHT22;1353;51.386;7.028;2022-08-25T04:49:28;20.00;99.90
2687;DHT22;1353;51.386;7.028;2022-08-25T04:51:56;21.10;99.90
2687;DHT22;1353;51.386;7.028;2022-08-25T04:54:23;20.90;99.90
2687;DHT22;1353;51.386;7.028;2022-08-25T04:56:51;21.00;99.90
2687;DHT22;1353;51.386;7.028;2022-08-25T04:59:19;20.50;99.90
2687;DHT22;1353;51.386;7.028;2022-08-25T05:01:46;20.30;99.90
2687;DHT22;1353;51.386;7.028;2022-08-25T05:04:14;20.40;99.90
2687;DHT22;1353;51.386;7.028;2022-08-25T05:06:42;20.60;99.90
2687;DHT22;1353;51.386;7.028;2022-08-25T05:09:09;20.70;99.90
2687;DHT22;1353;51.386;7.028;2022-08-25T05:11:36;21.20;99.90
2687;DHT22;1353;51.386;7.028;2022-08-25T05:14:03;21.30;99.90
2687;DHT22;1353;51.386;7.028;2022-08-25T05:16:37;21.60;99.90
2687;DHT22;1353;51.386;7.028;2022-08-25T05:19:05;22.00;99.90
2687;DHT22;1353;51.386;7.028;2022-08-25T05:21:32;21.90;99.90
2687;DHT22;1353;51.386;7.028;2022-08-25T05:24:00;22.40;99.90
2687;DHT22;1353;51.386;7.028;2022-08-25T05:26:28;22.70;99.90
2687;DHT22;1353;51.386;7.028;2022-08-25T05:28:56;23.00;99.90
2687;DHT22;1353;51.386;7.028;2022-08-25T05:31:25;22.50;99.90
2687;DHT22;1353;51.386;7.028;2022-08-25T05:33:54;23.00;99.90
2687;DHT22;1353;51.386;7.028;2022-08-25T05:36:23;24.10;99.20
2687;DHT22;1353;51.386;7.028;2022-08-25T05:38:50;24.10;95.30
2687;DHT22;1353;51.386;7.028;2022-08-25T05:41:18;24.70;92.90
2687;DHT22;1353;51.386;7.028;2022-08-25T05:43:47;23.40;96.30
2687;DHT22;1353;51.386;7.028;2022-08-25T05:46:16;24.20;94.70
2687;DHT22;1353;51.386;7.028;2022-08-25T05:48:43;23.20;97.60
2687;DHT22;1353;51.386;7.028;2022-08-25T05:51:12;23.60;97.30
2687;DHT22;1353;51.386;7.028;2022-08-25T05:53:41;23.40;97.60
2687;DHT22;1353;51.386;7.028;2022-08-25T05:56:09;24.00;95.60
2687;DHT22;1353;51.386;7.028;2022-08-25T05:58:36;24.70;93.10
2687;DHT22;1353;51.386;7.028;2022-08-25T06:01:04;23.40;96.00
2687;DHT22;1353;51.386;7.028;2022-08-25T06:03:45;24.10;96.90
2687;DHT22;1353;51.386;7.028;2022-08-25T06:06:14;24.90;93.30
2687;DHT22;1353;51.386;7.028;2022-08-25T06:08:41;24.60;92.00
2687;DHT22;1353;51.386;7.028;2022-08-25T06:11:09;24.20;93.80
2687;DHT22;1353;51.386;7.028;2022-08-25T06:13:36;23.70;95.40
2687;DHT22;1353;51.386;7.028;2022-08-25T06:16:04;25.40;90.30
2687;DHT22;1353;51.386;7.028;2022-08-25T06:18:30;25.40;89.50
2687;DHT22;1353;51.386;7.028;2022-08-25T06:20:57;24.70;91.30
2687;DHT22;1353;51.386;7.028;2022-08-25T06:23:25;26.00;87.10
2687;DHT22;1353;51.386;7.028;2022-08-25T06:25:53;26.30;82.70
2687;DHT22;1353;51.386;7.028;2022-08-25T06:28:21;25.10;86.30
2687;DHT22;1353;51.386;7.028;2022-08-25T06:30:47;24.50;92.20
2687;DHT22;1353;51.386;7.028;2022-08-25T06:33:14;24.70;92.30
2687;DHT22;1353;51.386;7.028;2022-08-25T06:35:42;24.10;92.50
2687;DHT22;1353;51.386;7.028;2022-08-25T06:38:10;25.70;88.20
2687;DHT22;1353;51.386;7.028;2022-08-25T06:40:38;25.30;87.80
2687;DHT22;1353;51.386;7.028;2022-08-25T06:43:05;26.90;78.10
2687;DHT22;1353;51.386;7.028;2022-08-25T06:45:33;26.60;79.80
2687;DHT22;1353;51.386;7.028;2022-08-25T06:48:00;25.40;83.60
2687;DHT22;1353;51.386;7.028;2022-08-25T06:50:27;25.70;81.00
2687;DHT22;1353;51.386;7.028;2022-08-25T06:52:54;26.90;77.80
2687;DHT22;1353;51.386;7.028;2022-08-25T06:55:21;25.70;81.30
2687;DHT22;1353;51.386;7.028;2022-08-25T06:57:52;26.10;82.00
2687;DHT22;1353;51.386;7.028;2022-08-25T07:00:19;26.10;81.90
2687;DHT22;1353;51.386;7.028;2022-08-25T07:02:46;26.00;82.20
2687;DHT22;1353;51.386;7.028;2022-08-25T07:05:12;26.50;80.80
2687;DHT22;1353;51.386;7.028;2022-08-25T07:07:39;27.20;75.10
2687;DHT22;1353;51.386;7.028;2022-08-25T07:10:07;26.90;72.90
2687;DHT22;1353;51.386;7.028;2022-08-25T07:12:34;26.60;75.90
2687;DHT22;1353;51.386;7.028;2022-08-25T07:15:03;27.90;69.50
2687;DHT22;1353;51.386;7.028;2022-08-25T07:17:30;27.70;67.10
2687;DHT22;1353;51.386;7.028;2022-08-25T07:19:57;27.90;68.80
2687;DHT22;1353;51.386;7.028;2022-08-25T07:22:24;28.20;65.60
2687;DHT22;1353;51.386;7.028;2022-08-25T07:24:50;27.10;66.90
2687;DHT22;1353;51.386;7.028;2022-08-25T07:27:17;27.50;67.30
2687;DHT22;1353;51.386;7.028;2022-08-25T07:29:44;26.50;69.20
2687;DHT22;1353;51.386;7.028;2022-08-25T07:32:15;27.10;67.40
2687;DHT22;1353;51.386;7.028;2022-08-25T07:34:42;27.20;65.60
2687;DHT22;1353;51.386;7.028;2022-08-25T07:37:26;26.90;69.80
2687;DHT22;1353;51.386;7.028;2022-08-25T07:39:53;28.70;63.00
2687;DHT22;1353;51.386;7.028;2022-08-25T07:42:20;26.60;65.00
2687;DHT22;1353;51.386;7.028;2022-08-25T07:44:47;26.40;69.10
2687;DHT22;1353;51.386;7.028;2022-08-25T07:47:15;27.20;64.90
2687;DHT22;1353;51.386;7.028;2022-08-25T07:49:42;27.30;67.70
2687;DHT22;1353;51.386;7.028;2022-08-25T07:52:09;29.40;60.90
2687;DHT22;1353;51.386;7.028;2022-08-25T07:54:36;29.90;57.60
2687;DHT22;1353;51.386;7.028;2022-08-25T07:57:04;28.90;58.00
2687;DHT22;1353;51.386;7.028;2022-08-25T07:59:31;29.60;55.00
2687;DHT22;1353;51.386;7.028;2022-08-25T08:01:57;28.30;56.10
2687;DHT22;1353;51.386;7.028;2022-08-25T08:04:25;28.50;55.20
2687;DHT22;1353;51.386;7.028;2022-08-25T08:06:52;29.80;53.00
2687;DHT22;1353;51.386;7.028;2022-08-25T08:09:19;31.20;51.00
2687;DHT22;1353;51.386;7.028;2022-08-25T08:11:46;31.30;49.00
2687;DHT22;1353;51.386;7.028;2022-08-25T08:14:13;31.80;45.20
2687;DHT22;1353;51.386;7.028;2022-08-25T08:16:40;30.60;48.30
2687;DHT22;1353;51.386;7.028;2022-08-25T08:19:08;32.80;43.70
2687;DHT22;1353;51.386;7.028;2022-08-25T08:21:36;32.50;41.50
2687;DHT22;1353;51.386;7.028;2022-08-25T08:24:03;32.10;43.40
2687;DHT22;1353;51.386;7.028;2022-08-25T08:26:30;30.00;44.90
2687;DHT22;1353;51.386;7.028;2022-08-25T08:28:57;32.00;42.10
2687;DHT22;1353;51.386;7.028;2022-08-25T08:31:25;29.60;44.30
2687;DHT22;1353;51.386;7.028;2022-08-25T08:33:54;31.40;42.30
2687;DHT22;1353;51.386;7.028;2022-08-25T08:36:22;32.30;41.90
2687;DHT22;1353;51.386;7.028;2022-08-25T08:38:51;32.90;40.10
2687;DHT22;1353;51.386;7.028;2022-08-25T08:41:45;33.20;38.20
2687;DHT22;1353;51.386;7.028;2022-08-25T08:44:38;31.60;42.30
2687;DHT22;1353;51.386;7.028;2022-08-25T08:47:12;30.80;42.70
2687;DHT22;1353;51.386;7.028;2022-08-25T08:49:51;30.50;42.30
2687;DHT22;1353;51.386;7.028;2022-08-25T08:52:32;32.60;40.00
2687;DHT22;1353;51.386;7.028;2022-08-25T08:55:08;29.90;38.70
2687;DHT22;1353;51.386;7.028;2022-08-25T08:57:42;31.00;41.20
2687;DHT22;1353;51.386;7.028;2022-08-25T09:00:10;31.50;39.00
2687;DHT22;1353;51.386;7.028;2022-08-25T09:02:42;32.00;39.60
2687;DHT22;1353;51.386;7.028;2022-08-25T09:05:13;32.80;37.10
2687;DHT22;1353;51.386;7.028;2022-08-25T09:07:45;33.50;35.80
2687;DHT22;1353;51.386;7.028;2022-08-25T09:10:15;33.50;33.30
2687;DHT22;1353;51.386;7.028;2022-08-25T09:12:46;34.80;30.00
2687;DHT22;1353;51.386;7.028;2022-08-25T09:15:19;33.10;34.00
2687;DHT22;1353;51.386;7.028;2022-08-25T09:18:02;33.80;31.30
2687;DHT22;1353;51.386;7.028;2022-08-25T09:20:48;33.20;31.80
2687;DHT22;1353;51.386;7.028;2022-08-25T09:23:26;31.20;32.00
2687;DHT22;1353;51.386;7.028;2022-08-25T09:26:02;33.50;31.90
2687;DHT22;1353;51.386;7.028;2022-08-25T09:28:39;33.60;32.20
2687;DHT22;1353;51.386;7.028;2022-08-25T09:31:14;31.80;34.10
2687;DHT22;1353;51.386;7.028;2022-08-25T09:33:43;31.30;33.80
2687;DHT22;1353;51.386;7.028;2022-08-25T09:36:09;33.50;33.50
2687;DHT22;1353;51.386;7.028;2022-08-25T09:38:36;32.70;33.20
2687;DHT22;1353;51.386;7.028;2022-08-25T09:41:06;31.50;32.70
2687;DHT22;1353;51.386;7.028;2022-08-25T09:43:35;33.90;31.60
2687;DHT22;1353;51.386;7.028;2022-08-25T09:46:10;31.30;33.90
2687;DHT22;1353;51.386;7.028;2022-08-25T09:48:43;31.30;33.80
2687;DHT22;1353;51.386;7.028;2022-08-25T09:51:17;33.00;30.00
2687;DHT22;1353;51.386;7.028;2022-08-25T09:53:50;34.40;28.20
2687;DHT22;1353;51.386;7.028;2022-08-25T09:56:21;34.30;28.70
2687;DHT22;1353;51.386;7.028;2022-08-25T09:58:49;33.40;29.60
2687;DHT22;1353;51.386;7.028;2022-08-25T10:01:19;32.60;30.80
2687;DHT22;1353;51.386;7.028;2022-08-25T10:03:58;30.50;32.10
2687;DHT22;1353;51.386;7.028;2022-08-25T10:06:27;31.70;31.60
2687;DHT22;1353;51.386;7.028;2022-08-25T10:08:57;32.10;31.10
2687;DHT22;1353;51.386;7.028;2022-08-25T10:11:39;32.30;31.40
2687;DHT22;1353;51.386;7.028;2022-08-25T10:14:19;31.90;31.60
2687;DHT22;1353;51.386;7.028;2022-08-25T10:16:47;33.60;29.40
2687;DHT22;1353;51.386;7.028;2022-08-25T10:19:25;34.90;27.40
2687;DHT22;1353;51.386;7.028;2022-08-25T10:22:04;37.30;24.30
2687;DHT22;1353;51.386;7.028;2022-08-25T10:24:31;32.80;26.60
2687;DHT22;1353;51.386;7.028;2022-08-25T10:27:07;32.80;27.20
2687;DHT22;1353;51.386;7.028;2022-08-25T10:29:53;32.50;27.20
2687;DHT22;1353;51.386;7.028;2022-08-25T10:32:32;32.00;27.90
2687;DHT22;1353;51.386;7.028;2022-08-25T10:35:05;34.50;26.40
2687;DHT22;1353;51.386;7.028;2022-08-25T10:37:42;33.10;27.60
2687;DHT22;1353;51.386;7.028;2022-08-25T10:40:19;33.40;28.00
2687;DHT22;1353;51.386;7.028;2022-08-25T10:42:57;34.50;26.40
2687;DHT22;1353;51.386;7.028;2022-08-25T10:45:26;32.70;28.50
2687;DHT22;1353;51.386;7.028;2022-08-25T10:48:30;33.30;28.30
2687;DHT22;1353;51.386;7.028;2022-08-25T10:51:08;33.10;27.60
2687;DHT22;1353;51.386;7.028;2022-08-25T10:53:53;35.20;25.20
2687;DHT22;1353;51.386;7.028;2022-08-25T10:56:26;35.20;22.80
2687;DHT22;1353;51.386;7.028;2022-08-25T10:59:24;35.00;23.80
2687;DHT22;1353;51.386;7.028;2022-08-25T11:02:07;35.30;19.00
2687;DHT22;1353;51.386;7.028;2022-08-25T11:04:42;36.70;17.60
2687;DHT22;1353;51.386;7.028;2022-08-25T11:07:19;33.20;18.40
2687;DHT22;1353;51.386;7.028;2022-08-25T11:09:49;35.30;17.00
2687;DHT22;1353;51.386;7.028;2022-08-25T11:12:25;35.30;15.80
2687;DHT22;1353;51.386;7.028;2022-08-25T11:14:58;34.10;16.30
2687;DHT22;1353;51.386;7.028;2022-08-25T11:17:40;37.20;15.50
2687;DHT22;1353;51.386;7.028;2022-08-25T11:20:10;37.60;13.50
2687;DHT22;1353;51.386;7.028;2022-08-25T11:22:43;38.30;12.10
2687;DHT22;1353;51.386;7.028;2022-08-25T11:25:14;38.60;11.90
2687;DHT22;1353;51.386;7.028;2022-08-25T11:27:46;39.40;11.00
2687;DHT22;1353;51.386;7.028;2022-08-25T11:30:16;38.30;10.90
2687;DHT22;1353;51.386;7.028;2022-08-25T11:32:46;34.50;12.10
2687;DHT22;1353;51.386;7.028;2022-08-25T11:35:16;33.40;13.80
2687;DHT22;1353;51.386;7.028;2022-08-25T11:37:56;35.30;13.70
2687;DHT22;1353;51.386;7.028;2022-08-25T11:40:34;33.70;13.90
2687;DHT22;1353;51.386;7.028;2022-08-25T11:43:13;35.30;13.20
2687;DHT22;1353;51.386;7.028;2022-08-25T11:45:56;35.40;12.40
2687;DHT22;1353;51.386;7.028;2022-08-25T11:48:36;37.20;12.00
2687;DHT22;1353;51.386;7.028;2022-08-25T11:51:06;35.90;11.50
2687;DHT22;1353;51.386;7.028;2022-08-25T11:53:35;35.30;12.10
2687;DHT22;1353;51.386;7.028;2022-08-25T11:56:05;35.20;12.10
2687;DHT22;1353;51.386;7.028;2022-08-25T11:58:44;37.00;11.90
2687;DHT22;1353;51.386;7.028;2022-08-25T12:04:15;38.00;8.60
2687;DHT22;1353;51.386;7.028;2022-08-25T12:10:17;33.70;10.80
2687;DHT22;1353;51.386;7.028;2022-08-25T12:12:57;32.90;13.20
2687;DHT22;1353;51.386;7.028;2022-08-25T12:15:26;33.60;13.00
2687;DHT22;1353;51.386;7.028;2022-08-25T12:18:11;32.70;14.50
2687;DHT22;1353;51.386;7.028;2022-08-25T12:21:10;32.40;14.20
2687;DHT22;1353;51.386;7.028;2022-08-25T12:23:39;34.00;12.70
2687;DHT22;1353;51.386;7.028;2022-08-25T12:26:10;34.80;12.20
2687;DHT22;1353;51.386;7.028;2022-08-25T12:28:58;33.00;13.10
2687;DHT22;1353;51.386;7.028;2022-08-25T12:32:02;34.10;13.10
2687;DHT22;1353;51.386;7.028;2022-08-25T12:34:43;33.10;13.30
2687;DHT22;1353;51.386;7.028;2022-08-25T12:37:16;32.50;14.60
2687;DHT22;1353;51.386;7.028;2022-08-25T12:39:49;35.40;12.60
2687;DHT22;1353;51.386;7.028;2022-08-25T12:42:23;34.50;11.50
2687;DHT22;1353;51.386;7.028;2022-08-25T12:45:12;33.00;12.80
2687;DHT22;1353;51.386;7.028;2022-08-25T12:47:40;34.80;11.60
2687;DHT22;1353;51.386;7.028;2022-08-25T12:50:29;33.90;11.80
2687;DHT22;1353;51.386;7.028;2022-08-25T12:53:09;33.40;12.50
2687;DHT22;1353;51.386;7.028;2022-08-25T12:55:40;31.80;13.10
2687;DHT22;1353;51.386;7.028;2022-08-25T12:58:07;32.40;12.30
2687;DHT22;1353;51.386;7.028;2022-08-25T13:00:44;32.00;12.20
2687;DHT22;1353;51.386;7.028;2022-08-25T13:03:36;32.30;11.60
2687;DHT22;1353;51.386;7.028;2022-08-25T13:06:17;32.40;11.70
2687;DHT22;1353;51.386;7.028;2022-08-25T13:09:29;33.10;11.50
2687;DHT22;1353;51.386;7.028;2022-08-25T13:12:06;33.90;10.90
2687;DHT22;1353;51.386;7.028;2022-08-25T13:14:38;33.30;10.00
2687;DHT22;1353;51.386;7.028;2022-08-25T13:17:05;33.50;10.80
2687;DHT22;1353;51.386;7.028;2022-08-25T13:19:32;34.20;10.40
2687;DHT22;1353;51.386;7.028;2022-08-25T13:22:02;34.30;9.40
2687;DHT22;1353;51.386;7.028;2022-08-25T13:24:33;34.50;9.60
2687;DHT22;1353;51.386;7.028;2022-08-25T13:27:03;32.60;10.00
2687;DHT22;1353;51.386;7.028;2022-08-25T13:29:32;32.30;10.70
2687;DHT22;1353;51.386;7.028;2022-08-25T13:32:01;31.70;10.80
2687;DHT22;1353;51.386;7.028;2022-08-25T13:34:31;32.20;11.30
2687;DHT22;1353;51.386;7.028;2022-08-25T13:37:04;32.60;11.30
2687;DHT22;1353;51.386;7.028;2022-08-25T13:39:50;33.00;11.20
2687;DHT22;1353;51.386;7.028;2022-08-25T13:42:32;32.60;11.80
2687;DHT22;1353;51.386;7.028;2022-08-25T13:45:00;33.00;11.30
2687;DHT22;1353;51.386;7.028;2022-08-25T13:47:35;32.90;11.20
2687;DHT22;1353;51.386;7.028;2022-08-25T13:50:20;33.20;10.60
2687;DHT22;1353;51.386;7.028;2022-08-25T13:52:50;32.70;11.10
2687;DHT22;1353;51.386;7.028;2022-08-25T13:55:22;32.80;11.40
2687;DHT22;1353;51.386;7.028;2022-08-25T13:57:49;33.10;10.90
2687;DHT22;1353;51.386;7.028;2022-08-25T14:00:30;32.60;10.10
2687;DHT22;1353;51.386;7.028;2022-08-25T14:02:57;32.70;10.00
2687;DHT22;1353;51.386;7.028;2022-08-25T14:05:34;31.80;11.20
2687;DHT22;1353;51.386;7.028;2022-08-25T14:08:03;31.60;11.40
2687;DHT22;1353;51.386;7.028;2022-08-25T14:10:36;31.60;11.70
2687;DHT22;1353;51.386;7.028;2022-08-25T14:13:10;31.10;10.60
2687;DHT22;1353;51.386;7.028;2022-08-25T14:15:38;31.80;10.80
2687;DHT22;1353;51.386;7.028;2022-08-25T14:18:08;31.50;11.00
2687;DHT22;1353;51.386;7.028;2022-08-25T14:20:36;31.20;11.30
2687;DHT22;1353;51.386;7.028;2022-08-25T14:23:09;31.50;11.70
2687;DHT22;1353;51.386;7.028;2022-08-25T14:25:39;31.40;12.60
2687;DHT22;1353;51.386;7.028;2022-08-25T14:28:10;30.90;12.10
2687;DHT22;1353;51.386;7.028;2022-08-25T14:30:41;31.30;12.00
2687;DHT22;1353;51.386;7.028;2022-08-25T14:33:09;31.00;11.30
2687;DHT22;1353;51.386;7.028;2022-08-25T14:35:36;31.30;12.70
2687;DHT22;1353;51.386;7.028;2022-08-25T14:38:08;31.30;12.50
2687;DHT22;1353;51.386;7.028;2022-08-25T14:40:35;31.10;13.00
2687;DHT22;1353;51.386;7.028;2022-08-25T14:43:05;31.50;13.70
2687;DHT22;1353;51.386;7.028;2022-08-25T14:45:34;31.60;13.40
2687;DHT22;1353;51.386;7.028;2022-08-25T14:48:04;31.70;13.80
2687;DHT22;1353;51.386;7.028;2022-08-25T14:50:32;31.70;12.90
2687;DHT22;1353;51.386;7.028;2022-08-25T14:53:00;31.70;12.60
2687;DHT22;1353;51.386;7.028;2022-08-25T14:55:27;31.90;12.40
2687;DHT22;1353;51.386;7.028;2022-08-25T14:57:54;31.80;11.80
2687;DHT22;1353;51.386;7.028;2022-08-25T15:00:23;31.90;12.40
2687;DHT22;1353;51.386;7.028;2022-08-25T15:02:51;32.20;11.20
2687;DHT22;1353;51.386;7.028;2022-08-25T15:05:21;32.20;10.40
2687;DHT22;1353;51.386;7.028;2022-08-25T15:07:51;32.60;10.70
2687;DHT22;1353;51.386;7.028;2022-08-25T15:10:36;32.30;10.70
2687;DHT22;1353;51.386;7.028;2022-08-25T15:13:03;32.00;11.80
2687;DHT22;1353;51.386;7.028;2022-08-25T15:15:32;31.90;12.30
2687;DHT22;1353;51.386;7.028;2022-08-25T15:17:59;32.20;12.40
2687;DHT22;1353;51.386;7.028;2022-08-25T15:20:25;31.60;12.30
2687;DHT22;1353;51.386;7.028;2022-08-25T15:22:52;31.60;12.80
2687;DHT22;1353;51.386;7.028;2022-08-25T15:25:19;31.50;12.50
2687;DHT22;1353;51.386;7.028;2022-08-25T15:27:47;31.40;13.10
2687;DHT22;1353;51.386;7.028;2022-08-25T15:30:14;31.20;13.20
2687;DHT22;1353;51.386;7.028;2022-08-25T15:32:43;31.20;13.60
2687;DHT22;1353;51.386;7.028;2022-08-25T15:35:09;31.20;14.10
2687;DHT22;1353;51.386;7.028;2022-08-25T15:37:37;31.30;14.70
2687;DHT22;1353;51.386;7.028;2022-08-25T15:40:05;31.30;13.70
2687;DHT22;1353;51.386;7.028;2022-08-25T15:42:33;31.30;14.30
2687;DHT22;1353;51.386;7.028;2022-08-25T15:44:59;31.20;14.20
2687;DHT22;1353;51.386;7.028;2022-08-25T15:47:26;31.20;14.50
2687;DHT22;1353;51.386;7.028;2022-08-25T15:50:05;30.90;14.80
2687;DHT22;1353;51.386;7.028;2022-08-25T15:52:32;30.90;15.40
2687;DHT22;1353;51.386;7.028;2022-08-25T15:54:59;30.70;14.90
2687;DHT22;1353;51.386;7.028;2022-08-25T15:57:26;30.80;14.90
2687;DHT22;1353;51.386;7.028;2022-08-25T15:59:53;30.70;14.90
2687;DHT22;1353;51.386;7.028;2022-08-25T16:02:20;30.70;14.70
2687;DHT22;1353;51.386;7.028;2022-08-25T16:04:47;30.50;14.40
2687;DHT22;1353;51.386;7.028;2022-08-25T16:07:17;30.50;14.90
2687;DHT22;1353;51.386;7.028;2022-08-25T16:09:44;30.40;15.00
2687;DHT22;1353;51.386;7.028;2022-08-25T16:12:11;30.40;14.90
2687;DHT22;1353;51.386;7.028;2022-08-25T16:14:38;30.40;15.00
2687;DHT22;1353;51.386;7.028;2022-08-25T16:17:06;30.50;15.00
2687;DHT22;1353;51.386;7.028;2022-08-25T16:19:33;30.40;14.30
2687;DHT22;1353;51.386;7.028;2022-08-25T16:22:00;30.50;14.30
2687;DHT22;1353;51.386;7.028;2022-08-25T16:24:28;30.50;13.80
2687;DHT22;1353;51.386;7.028;2022-08-25T16:26:55;30.60;13.60
2687;DHT22;1353;51.386;7.028;2022-08-25T16:29:30;30.40;13.50